createdAt,value
2019-02-24T00:03:44.522Z,4.20
2019-02-24T00:08:49.255Z,4.20
2019-02-24T00:13:56.966Z,4.20
2019-02-24T00:19:05.783Z,4.10
2019-02-24T00:24:10.474Z,4.00
2019-02-24T00:29:16.849Z,4.00
2019-02-24T00:34:24.671Z,3.90
2019-02-24T00:39:31.026Z,3.70
2019-02-24T00:44:41.101Z,3.70
2019-02-24T00:49:47.383Z,3.60
2019-02-24T00:54:52.097Z,3.50
2019-02-24T01:00:00.099Z,3.60
2019-02-24T01:05:06.997Z,3.60
2019-02-24T01:10:12.103Z,3.50
2019-02-24T01:15:22.813Z,3.50
2019-02-24T01:20:30.661Z,3.50
2019-02-24T01:25:35.345Z,3.40
2019-02-24T01:30:45.453Z,3.30
2019-02-24T01:35:57.509Z,3.20
2019-02-24T01:41:02.306Z,3.10
2019-02-24T01:46:08.616Z,3.10
2019-02-24T01:51:14.414Z,3.00
2019-02-24T01:56:19.989Z,3.00
2019-02-24T02:01:32.137Z,3.10
2019-02-24T02:06:39.900Z,3.00
2019-02-24T02:11:46.298Z,3.00
2019-02-24T02:16:51.303Z,3.00
2019-02-24T02:21:56.050Z,3.00
2019-02-24T02:27:00.821Z,2.90
2019-02-24T02:32:05.930Z,2.90
2019-02-24T02:37:15.263Z,2.80
2019-02-24T02:42:22.057Z,2.70
2019-02-24T02:47:30.248Z,2.70
2019-02-24T02:52:38.230Z,2.60
2019-02-24T02:57:44.475Z,2.60
2019-02-24T03:02:49.205Z,2.60
2019-02-24T03:08:02.860Z,2.50
2019-02-24T03:13:07.538Z,2.50
2019-02-24T03:18:16.200Z,2.50
2019-02-24T03:23:22.424Z,2.50
2019-02-24T03:28:27.060Z,2.50
2019-02-24T03:33:31.728Z,2.50
2019-02-24T03:38:37.242Z,2.50
2019-02-24T03:43:50.335Z,2.40
2019-02-24T03:48:57.994Z,2.40
2019-02-24T03:54:04.345Z,2.40
2019-02-24T03:59:15.367Z,2.30
2019-02-24T04:04:19.165Z,2.20
2019-02-24T04:09:24.539Z,2.00
2019-02-24T04:14:29.437Z,2.00
2019-02-24T04:19:34.324Z,2.00
2019-02-24T04:24:41.861Z,1.90
2019-02-24T04:29:49.703Z,1.80
2019-02-24T04:34:54.835Z,1.80
2019-02-24T04:40:02.393Z,1.80
2019-02-24T04:45:08.724Z,1.70
2019-02-24T04:50:22.536Z,1.70
2019-02-24T04:55:27.427Z,1.70
2019-02-24T05:00:33.903Z,1.70
2019-02-24T05:05:49.204Z,1.70
2019-02-24T05:10:52.161Z,1.70
2019-02-24T05:15:57.043Z,1.70
2019-02-24T05:21:02.336Z,1.60
2019-02-24T05:26:08.493Z,1.50
2019-02-24T05:31:16.380Z,1.50
2019-02-24T05:36:21.053Z,1.50
2019-02-24T05:41:30.217Z,1.50
2019-02-24T05:46:34.848Z,1.50
2019-02-24T05:51:41.880Z,1.50
2019-02-24T05:56:46.520Z,1.50
2019-02-24T06:01:52.776Z,1.50
2019-02-24T06:07:01.863Z,1.50
2019-02-24T06:12:09.744Z,1.40
2019-02-24T06:17:15.665Z,1.30
2019-02-24T06:22:21.295Z,1.30
2019-02-24T06:27:27.273Z,1.20
2019-02-24T06:32:37.066Z,1.20
2019-02-24T06:37:43.332Z,1.20
2019-02-24T06:42:48.720Z,1.20
2019-02-24T06:48:00.285Z,1.20
2019-02-24T06:53:04.753Z,1.10
2019-02-24T06:58:10.797Z,1.10
2019-02-24T07:03:18.088Z,1.10
2019-02-24T07:08:22.981Z,1.10
2019-02-24T07:13:33.940Z,1.10
2019-02-24T07:18:43.048Z,1.20
2019-02-24T07:23:50.555Z,1.30
2019-02-24T11:10:03.933Z,10.20
2019-02-24T11:15:15.644Z,10.80
2019-02-24T11:20:20.651Z,11.20
2019-02-24T11:25:25.800Z,11.30
2019-02-24T11:30:30.675Z,11.40
2019-02-24T11:35:38.456Z,11.50
2019-02-24T11:40:45.737Z,11.60
2019-02-24T11:45:50.448Z,11.80
2019-02-24T11:50:58.423Z,12.00
2019-02-24T11:56:05.072Z,12.20
2019-02-24T12:01:09.845Z,12.30
2019-02-24T12:06:16.233Z,12.50
2019-02-24T12:11:24.272Z,12.70
2019-02-24T12:16:30.954Z,12.80
2019-02-24T12:21:41.577Z,13.00
2019-02-24T12:26:47.573Z,13.20
2019-02-24T12:31:56.756Z,13.30
2019-02-24T12:37:02.679Z,13.50
2019-02-24T12:42:07.874Z,13.70
2019-02-24T12:47:13.997Z,13.80
2019-02-24T12:52:20.685Z,14.00
2019-02-24T12:57:31.698Z,14.10
2019-02-24T13:02:36.774Z,14.20
2019-02-24T13:07:41.541Z,14.40
2019-02-24T13:12:47.813Z,14.50
2019-02-24T13:17:52.748Z,14.70
2019-02-24T13:22:57.699Z,14.90
2019-02-24T13:28:04.864Z,15.10
2019-02-24T13:33:10.703Z,15.20
2019-02-24T13:38:19.889Z,15.50
2019-02-24T13:43:27.399Z,15.60
2019-02-24T13:48:36.497Z,15.90
2019-02-24T13:53:48.293Z,16.00
2019-02-24T13:59:00.809Z,16.20
2019-02-24T14:04:05.661Z,16.30
2019-02-24T14:09:10.667Z,16.50
2019-02-24T14:14:16.190Z,16.70
2019-02-24T14:19:21.025Z,16.80
2019-02-24T14:24:28.698Z,17.00
2019-02-24T14:29:36.908Z,17.10
2019-02-24T14:34:41.704Z,17.20
2019-02-24T14:39:49.469Z,17.30
2019-02-24T14:44:55.574Z,17.50
2019-02-24T14:50:09.080Z,17.60
2019-02-24T14:55:15.580Z,17.80
2019-02-24T15:00:20.520Z,17.90
2019-02-24T15:05:26.762Z,17.90
2019-02-24T15:10:34.567Z,18.00
2019-02-24T15:15:39.941Z,17.90
2019-02-24T15:20:52.211Z,17.80
2019-02-24T15:25:57.214Z,17.70
2019-02-24T15:31:02.413Z,17.60
2019-02-24T15:36:12.761Z,17.50
2019-02-24T15:41:19.771Z,17.50
2019-02-24T15:46:27.007Z,17.30
2019-02-24T15:51:37.757Z,17.20
2019-02-24T15:56:51.904Z,17.00
2019-02-24T16:02:06.066Z,16.80
2019-02-24T16:07:11.000Z,16.60
2019-02-24T16:12:16.291Z,16.30
2019-02-24T16:17:24.476Z,16.00
2019-02-24T16:22:39.021Z,15.70
2019-02-24T16:27:56.076Z,15.40
2019-02-24T16:33:09.966Z,15.20
2019-02-24T16:38:08.260Z,15.00
2019-02-24T16:43:16.796Z,14.80
2019-02-24T16:48:27.661Z,14.70
2019-02-24T16:53:34.083Z,14.60
2019-02-24T16:58:39.318Z,14.50
2019-02-24T17:03:46.267Z,14.30
2019-02-24T17:14:51.037Z,14.00
2019-02-24T17:19:56.424Z,13.80
2019-02-24T17:25:05.269Z,13.60
2019-02-24T17:30:53.392Z,13.40
2019-02-24T17:46:55.736Z,13.20
2019-02-24T17:52:02.352Z,12.80
2019-02-24T17:57:08.129Z,12.50
2019-02-24T18:02:13.288Z,12.20
2019-02-24T18:07:18.508Z,11.90
2019-02-24T18:12:23.464Z,11.70
2019-02-24T18:17:29.264Z,11.50
2019-02-24T18:22:45.953Z,11.30
2019-02-24T18:27:51.804Z,11.20
2019-02-24T18:32:56.593Z,11.00
2019-02-24T18:38:02.506Z,10.80
2019-02-24T18:43:07.342Z,10.70
2019-02-24T18:48:13.827Z,10.50
2019-02-24T18:53:18.987Z,10.40
2019-02-24T18:58:25.763Z,10.20
2019-02-24T19:03:30.579Z,10.10
2019-02-24T19:08:35.457Z,10.00
2019-02-24T19:13:40.340Z,10.00
2019-02-24T19:18:45.455Z,9.90
2019-02-24T19:23:50.440Z,9.80
2019-02-24T19:28:56.764Z,9.70
2019-02-24T19:34:06.619Z,9.50
2019-02-24T19:39:14.309Z,9.40
2019-02-24T19:44:20.606Z,9.30
2019-02-24T19:49:26.994Z,9.20
2019-02-24T19:54:33.031Z,9.10
2019-02-24T19:59:37.724Z,8.90
2019-02-24T20:04:49.072Z,8.70
2019-02-24T20:09:54.268Z,8.70
2019-02-24T20:15:02.881Z,8.60
2019-02-24T20:20:10.192Z,8.50
2019-02-24T20:25:14.960Z,8.40
2019-02-24T20:30:22.963Z,8.30
2019-02-24T20:35:28.045Z,8.10
2019-02-24T20:40:32.981Z,8.00
2019-02-24T20:45:39.291Z,7.90
2019-02-24T20:50:44.356Z,7.80
2019-02-24T20:55:49.347Z,7.70
2019-02-24T21:00:56.920Z,7.70
2019-02-24T21:06:01.970Z,7.70
2019-02-24T21:11:06.708Z,7.60
2019-02-24T21:16:11.421Z,7.50
2019-02-24T21:21:16.433Z,7.40
2019-02-24T21:26:21.436Z,7.30
2019-02-24T21:31:26.389Z,7.20
2019-02-24T21:36:32.436Z,7.20
2019-02-24T21:41:37.775Z,7.10
2019-02-24T21:46:43.569Z,6.90
2019-02-24T21:51:50.286Z,6.80
2019-02-24T21:56:55.488Z,6.70
2019-02-24T22:02:00.414Z,6.60
2019-02-24T22:07:06.083Z,6.40
2019-02-24T22:12:11.506Z,6.20
2019-02-24T22:17:17.740Z,6.20
2019-02-24T22:22:22.490Z,6.10
2019-02-24T22:27:27.485Z,6.10
2019-02-24T22:32:32.292Z,6.10
2019-02-24T22:37:37.248Z,6.10
2019-02-24T22:42:43.548Z,6.10
2019-02-24T22:47:48.382Z,6.10
2019-02-24T22:52:54.600Z,6.00
2019-02-24T22:58:00.303Z,6.00
2019-02-24T23:03:06.008Z,5.90
2019-02-24T23:08:10.768Z,5.90
2019-02-24T23:13:17.047Z,5.70
2019-02-24T23:18:22.106Z,5.70
2019-02-24T23:23:26.790Z,5.70
2019-02-24T23:28:31.620Z,5.70
2019-02-24T23:33:38.994Z,5.70
2019-02-24T23:38:46.794Z,5.70
2019-02-24T23:43:52.792Z,5.60
2019-02-24T23:48:57.471Z,5.60
2019-02-24T23:54:02.998Z,5.50
2019-02-24T23:59:09.464Z,5.50
